Time;durP1;ratioP1;P1;durP2;ratioP2;P2;SDS_P1;SDS_P2;PMS_P1;PMS_P2;Temp;Humidity;BMP_temperature;BMP_pressure;BME280_temperature;BME280_humidity;BME280_pressure;Samples;Min_cycle;Max_cycle;Signal;HPM_P1;HPM_P2
2022/12/12 00:00:31;;;;;;;15.90;9.37;;;;;;;;;;5025152;28;21021;-54
2022/12/12 00:02:57;;;;;;;19.00;10.13;;;;;;;;;;5051473;28;20996;-55
2022/12/12 00:05:23;;;;;;;21.13;10.43;;;;;;;;;;5027982;28;20457;-55
2022/12/12 00:07:49;;;;;;;18.13;11.70;;;;;;;;;;5050838;28;20439;-55
2022/12/12 00:10:15;;;;;;;23.40;9.07;;;;;;;;;;5042859;28;21344;-55
2022/12/12 00:12:41;;;;;;;16.07;11.27;;;;;;;;;;5047018;28;20897;-55
2022/12/12 00:15:07;;;;;;;15.80;8.63;;;;;;;;;;5035608;28;21609;-55
2022/12/12 00:17:33;;;;;;;23.27;10.47;;;;;;;;;;5043156;28;20676;-55
2022/12/12 00:19:59;;;;;;;9.60;8.00;;;;;;;;;;5044060;28;23461;-54
2022/12/12 00:22:25;;;;;;;11.63;8.30;;;;;;;;;;5040573;28;22594;-54
2022/12/12 00:24:51;;;;;;;18.73;10.00;;;;;;;;;;5035799;28;20449;-54
2022/12/12 00:27:17;;;;;;;12.27;7.97;;;;;;;;;;5025571;28;21321;-54
2022/12/12 00:29:43;;;;;;;15.00;8.00;;;;;;;;;;5054107;28;20426;-54
2022/12/12 00:32:09;;;;;;;16.17;8.73;;;;;;;;;;5029706;28;20524;-54
2022/12/12 00:34:35;;;;;;;27.20;9.77;;;;;;;;;;5059398;28;20442;-54
2022/12/12 00:37:01;;;;;;;16.20;8.70;;;;;;;;;;5026157;28;20452;-54
2022/12/12 00:39:27;;;;;;;16.37;10.23;;;;;;;;;;5056562;28;20565;-54
2022/12/12 00:41:53;;;;;;;17.77;9.70;;;;;;;;;;5047778;28;20481;-54
2022/12/12 00:44:19;;;;;;;17.23;11.07;;;;;;;;;;5055457;28;20422;-53
2022/12/12 00:46:45;;;;;;;18.47;10.37;;;;;;;;;;5040732;28;20446;-53
2022/12/12 00:49:12;;;;;;;21.60;8.97;;;;;;;;;;5051169;28;20437;-54
2022/12/12 00:51:38;;;;;;;15.47;10.20;;;;;;;;;;5022340;28;20437;-54
2022/12/12 00:54:04;;;;;;;17.63;7.73;;;;;;;;;;5053796;28;20941;-59
2022/12/12 00:56:31;;;;;;;16.57;8.43;;;;;;;;;;5044187;28;20448;-54
2022/12/12 00:58:57;;;;;;;18.33;8.00;;;;;;;;;;5044233;28;20429;-53
2022/12/12 01:01:24;;;;;;;14.07;9.07;;;;;;;;;;4999742;28;20478;-54
2022/12/12 01:03:50;;;;;;;23.07;10.03;;;;;;;;;;5054851;28;21171;-55
2022/12/12 01:06:16;;;;;;;14.23;9.93;;;;;;;;;;5050929;28;20453;-53
2022/12/12 01:08:42;;;;;;;15.37;9.10;;;;;;;;;;5048456;28;21001;-53
2022/12/12 01:11:08;;;;;;;20.03;9.77;;;;;;;;;;5023840;28;21211;-52
2022/12/12 01:13:34;;;;;;;17.50;9.67;;;;;;;;;;5055359;28;20973;-53
2022/12/12 01:16:00;;;;;;;20.70;10.80;;;;;;;;;;5056055;28;20520;-54
2022/12/12 01:18:26;;;;;;;10.57;7.63;;;;;;;;;;5056172;28;20475;-53
2022/12/12 01:20:52;;;;;;;17.23;8.83;;;;;;;;;;5024778;28;21159;-54
2022/12/12 01:23:18;;;;;;;17.90;9.10;;;;;;;;;;5050186;28;20543;-53
2022/12/12 01:25:44;;;;;;;11.57;6.90;;;;;;;;;;5032697;28;20772;-53
2022/12/12 01:28:10;;;;;;;18.10;10.73;;;;;;;;;;5050883;28;21020;-54
2022/12/12 01:30:36;;;;;;;16.90;10.07;;;;;;;;;;5047442;28;20434;-53
2022/12/12 01:33:02;;;;;;;15.10;8.83;;;;;;;;;;4989945;28;20454;-54
2022/12/12 01:35:29;;;;;;;15.53;8.80;;;;;;;;;;5051763;28;20440;-53
2022/12/12 01:37:55;;;;;;;18.10;8.50;;;;;;;;;;5043652;28;20806;-54
2022/12/12 01:40:22;;;;;;;16.50;9.37;;;;;;;;;;5047098;28;20433;-53
2022/12/12 01:42:48;;;;;;;13.90;8.03;;;;;;;;;;5031355;28;20524;-57
2022/12/12 01:45:32;;;;;;;14.30;7.97;;;;;;;;;;5053232;28;20598;-54
2022/12/12 01:47:58;;;;;;;12.77;7.40;;;;;;;;;;5026776;28;20944;-54
2022/12/12 01:50:24;;;;;;;12.57;7.67;;;;;;;;;;5049686;28;20434;-55
2022/12/12 01:52:50;;;;;;;15.33;7.70;;;;;;;;;;5030147;28;20441;-55
2022/12/12 01:55:17;;;;;;;16.20;8.63;;;;;;;;;;5075282;28;20445;-51
2022/12/12 01:57:44;;;;;;;13.33;8.03;;;;;;;;;;5023863;28;21576;-56
2022/12/12 02:00:10;;;;;;;12.93;8.63;;;;;;;;;;5064983;28;20734;-54
2022/12/12 02:02:36;;;;;;;12.40;7.87;;;;;;;;;;5024969;28;20470;-55
2022/12/12 02:05:04;;;;;;;11.40;7.20;;;;;;;;;;5041334;28;20491;-53
2022/12/12 02:07:30;;;;;;;14.13;7.80;;;;;;;;;;5004757;28;20445;-53
2022/12/12 02:09:56;;;;;;;11.87;7.03;;;;;;;;;;5059134;28;20452;-55
2022/12/12 02:12:22;;;;;;;12.00;6.93;;;;;;;;;;5049556;28;20496;-52
2022/12/12 02:14:49;;;;;;;11.70;7.37;;;;;;;;;;5053172;28;20440;-54
2022/12/12 02:17:22;;;;;;;13.93;6.63;;;;;;;;;;5031678;28;20433;-54
2022/12/12 02:19:51;;;;;;;13.27;8.57;;;;;;;;;;5053568;28;20434;-53
2022/12/12 02:22:25;;;;;;;11.93;7.40;;;;;;;;;;5027328;28;20488;-53
2022/12/12 02:24:54;;;;;;;19.67;9.13;;;;;;;;;;5055014;28;20429;-54
2022/12/12 02:27:35;;;;;;;15.60;8.40;;;;;;;;;;5049988;28;20425;-55
2022/12/12 02:30:08;;;;;;;10.03;8.47;;;;;;;;;;5051145;28;21173;-55
2022/12/12 02:32:47;;;;;;;14.80;7.70;;;;;;;;;;5020921;28;20539;-54
2022/12/12 02:35:22;;;;;;;19.53;9.43;;;;;;;;;;5063343;28;20441;-56
2022/12/12 02:37:50;;;;;;;12.17;6.80;;;;;;;;;;5009277;28;20925;-53
2022/12/12 02:40:24;;;;;;;10.10;5.27;;;;;;;;;;5064614;28;20971;-53
2022/12/12 02:42:56;;;;;;;13.80;7.83;;;;;;;;;;5023862;28;21045;-55
2022/12/12 02:45:29;;;;;;;12.90;6.50;;;;;;;;;;5054152;28;20430;-54
2022/12/12 02:47:58;;;;;;;13.83;6.90;;;;;;;;;;5027203;28;20552;-54
2022/12/12 02:50:24;;;;;;;17.57;8.63;;;;;;;;;;5046601;28;20426;-54
2022/12/12 02:52:50;;;;;;;14.20;7.33;;;;;;;;;;5069889;28;20521;-55
2022/12/12 02:55:17;;;;;;;15.37;7.57;;;;;;;;;;5028393;28;20461;-52
2022/12/12 02:57:43;;;;;;;9.33;6.40;;;;;;;;;;5052343;28;20521;-54
2022/12/12 03:00:12;;;;;;;15.80;9.23;;;;;;;;;;5015355;28;21009;-55
2022/12/12 03:02:49;;;;;;;15.43;7.27;;;;;;;;;;5054085;28;20473;-55
2022/12/12 03:08:20;;;;;;;10.20;6.87;;;;;;;;;;5025844;28;21458;-54
2022/12/12 03:11:03;;;;;;;11.00;6.50;;;;;;;;;;5031747;28;20434;-54
2022/12/12 03:13:32;;;;;;;13.97;7.53;;;;;;;;;;5049488;28;20453;-55
2022/12/12 03:16:13;;;;;;;9.40;6.20;;;;;;;;;;5056272;28;20436;-54
2022/12/12 03:18:44;;;;;;;11.27;7.80;;;;;;;;;;5034893;28;20569;-55
2022/12/12 03:21:15;;;;;;;9.67;6.63;;;;;;;;;;5075142;28;20465;-55
2022/12/12 03:23:43;;;;;;;14.73;8.43;;;;;;;;;;5034154;28;20453;-52
2022/12/12 03:26:14;;;;;;;11.70;6.83;;;;;;;;;;5051686;28;20471;-55
2022/12/12 03:28:47;;;;;;;14.57;8.07;;;;;;;;;;5029880;28;20556;-54
2022/12/12 03:31:14;;;;;;;18.40;8.73;;;;;;;;;;5061508;28;20437;-53
2022/12/12 03:33:43;;;;;;;12.00;7.30;;;;;;;;;;5038380;28;20434;-54
2022/12/12 03:36:14;;;;;;;12.53;8.90;;;;;;;;;;5058260;28;20865;-53
2022/12/12 03:38:41;;;;;;;14.33;8.33;;;;;;;;;;5037821;28;21125;-54
2022/12/12 03:41:08;;;;;;;14.67;6.87;;;;;;;;;;5051323;28;20507;-55
2022/12/12 03:43:35;;;;;;;13.50;6.97;;;;;;;;;;5022095;28;20460;-55
2022/12/12 03:46:11;;;;;;;16.03;7.30;;;;;;;;;;5045371;28;20445;-53
2022/12/12 03:48:38;;;;;;;8.70;5.53;;;;;;;;;;5046470;28;20473;-54
2022/12/12 03:51:04;;;;;;;11.57;7.63;;;;;;;;;;5052736;28;20866;-54
2022/12/12 03:53:31;;;;;;;20.33;8.10;;;;;;;;;;5037615;28;20526;-53
2022/12/12 03:56:07;;;;;;;13.80;8.20;;;;;;;;;;5040367;28;20465;-55
2022/12/12 03:58:38;;;;;;;13.53;8.20;;;;;;;;;;5044360;28;20504;-54
2022/12/12 04:01:06;;;;;;;11.37;7.10;;;;;;;;;;5043944;28;20469;-53
2022/12/12 04:03:32;;;;;;;12.03;7.30;;;;;;;;;;5031622;28;21103;-54
2022/12/12 04:12:57;;;;;;;19.83;7.77;;;;;;;;;;5018351;28;22047;-54
2022/12/12 04:14:43;;;;;;;13.30;7.20;;;;;;;;;;5017641;28;20498;-55
2022/12/12 04:17:13;;;;;;;12.30;8.33;;;;;;;;;;5051602;28;21011;-53
2022/12/12 04:25:34;;;;;;;13.40;7.60;;;;;;;;;;5034416;28;21243;-59
2022/12/12 04:28:00;;;;;;;8.97;6.83;;;;;;;;;;5056942;28;20444;-52
2022/12/12 04:30:28;;;;;;;11.47;6.93;;;;;;;;;;5032957;28;20491;-54
2022/12/12 04:32:54;;;;;;;10.50;8.80;;;;;;;;;;5058686;28;20623;-54
2022/12/12 04:35:29;;;;;;;12.47;6.67;;;;;;;;;;5030504;28;20945;-54
2022/12/12 04:37:56;;;;;;;12.07;9.00;;;;;;;;;;5051833;28;20437;-55
2022/12/12 04:40:40;;;;;;;15.33;8.17;;;;;;;;;;5033585;28;20437;-55
2022/12/12 04:43:10;;;;;;;15.10;6.90;;;;;;;;;;5052717;28;20449;-55
2022/12/12 04:45:38;;;;;;;14.70;7.80;;;;;;;;;;5019293;28;20438;-54
2022/12/12 04:48:04;;;;;;;18.30;9.70;;;;;;;;;;5058170;28;21194;-55
2022/12/12 04:50:30;;;;;;;16.87;9.93;;;;;;;;;;5050336;28;20445;-54
2022/12/12 04:52:56;;;;;;;24.33;11.00;;;;;;;;;;5054309;28;20626;-54
2022/12/12 04:55:23;;;;;;;15.10;11.13;;;;;;;;;;5054340;28;21003;-55
2022/12/12 04:57:55;;;;;;;18.10;10.07;;;;;;;;;;5058069;28;20441;-55
2022/12/12 05:00:22;;;;;;;14.37;8.33;;;;;;;;;;5031505;28;20548;-54
2022/12/12 05:02:50;;;;;;;15.73;9.10;;;;;;;;;;5057372;28;20474;-55
2022/12/12 05:05:27;;;;;;;16.93;10.23;;;;;;;;;;5044916;28;20471;-55
2022/12/12 05:07:55;;;;;;;17.07;9.70;;;;;;;;;;5048344;28;20456;-54
2022/12/12 05:10:21;;;;;;;16.60;8.77;;;;;;;;;;4996222;28;20431;-55
2022/12/12 05:12:48;;;;;;;15.57;10.60;;;;;;;;;;5051447;28;20794;-54
2022/12/12 05:15:14;;;;;;;18.07;12.23;;;;;;;;;;5009140;28;20457;-55
2022/12/12 05:17:44;;;;;;;13.67;9.53;;;;;;;;;;5056916;28;20453;-55
2022/12/12 05:20:10;;;;;;;22.23;13.43;;;;;;;;;;5050722;28;20441;-56
2022/12/12 05:22:36;;;;;;;19.27;11.00;;;;;;;;;;5052011;28;20504;-59
2022/12/12 05:25:02;;;;;;;16.27;8.90;;;;;;;;;;5048366;28;20931;-55
2022/12/12 05:27:28;;;;;;;19.33;11.00;;;;;;;;;;5055345;28;20453;-56
2022/12/12 05:29:54;;;;;;;14.60;10.23;;;;;;;;;;5029135;28;23059;-55
2022/12/12 05:32:20;;;;;;;17.20;10.40;;;;;;;;;;5050817;28;20441;-55
2022/12/12 05:34:46;;;;;;;16.80;10.83;;;;;;;;;;5051511;28;20425;-56
2022/12/12 05:37:12;;;;;;;23.47;13.10;;;;;;;;;;5058706;28;20441;-55
2022/12/12 05:39:38;;;;;;;20.60;13.33;;;;;;;;;;5031113;28;21967;-55
2022/12/12 05:42:04;;;;;;;18.73;12.00;;;;;;;;;;5048964;28;20520;-56
2022/12/12 05:44:39;;;;;;;16.20;9.97;;;;;;;;;;5019849;28;20441;-53
2022/12/12 05:47:05;;;;;;;20.70;10.63;;;;;;;;;;5052774;28;20447;-55
2022/12/12 05:49:31;;;;;;;20.47;11.13;;;;;;;;;;5039304;28;20469;-54
2022/12/12 05:51:57;;;;;;;21.23;13.83;;;;;;;;;;5048828;28;20484;-52
2022/12/12 05:54:23;;;;;;;29.17;12.37;;;;;;;;;;5052252;28;20590;-55
2022/12/12 05:56:49;;;;;;;19.00;12.37;;;;;;;;;;5054368;28;20477;-53
2022/12/12 05:59:16;;;;;;;17.13;11.63;;;;;;;;;;5041003;28;20446;-55
2022/12/12 06:01:41;;;;;;;16.20;12.20;;;;;;;;;;5038539;28;20474;-55
2022/12/12 06:04:07;;;;;;;20.47;11.97;;;;;;;;;;5041287;28;20441;-52
2022/12/12 06:06:33;;;;;;;18.43;12.27;;;;;;;;;;5048758;28;20557;-54
2022/12/12 06:08:59;;;;;;;22.80;11.50;;;;;;;;;;5052718;28;20456;-54
2022/12/12 06:11:25;;;;;;;19.70;13.63;;;;;;;;;;5041273;28;20452;-57
2022/12/12 06:13:54;;;;;;;20.33;9.93;;;;;;;;;;5051300;28;21111;-55
2022/12/12 06:16:20;;;;;;;23.70;11.90;;;;;;;;;;5011181;28;20429;-53
2022/12/12 06:18:53;;;;;;;18.97;11.63;;;;;;;;;;5055697;28;20971;-55
2022/12/12 06:21:19;;;;;;;16.73;10.93;;;;;;;;;;5030901;28;20465;-54
2022/12/12 06:23:45;;;;;;;16.70;9.43;;;;;;;;;;5049518;28;20441;-55
2022/12/12 06:26:11;;;;;;;17.80;12.13;;;;;;;;;;5051995;28;20432;-55
2022/12/12 06:28:37;;;;;;;22.43;12.47;;;;;;;;;;5056543;28;20476;-55
2022/12/12 06:31:04;;;;;;;23.37;12.37;;;;;;;;;;5045975;28;20442;-53
2022/12/12 06:33:31;;;;;;;17.50;10.50;;;;;;;;;;5064892;28;20947;-54
2022/12/12 06:36:07;;;;;;;22.00;12.13;;;;;;;;;;5055313;28;20441;-55
2022/12/12 06:38:33;;;;;;;22.43;12.60;;;;;;;;;;5061847;28;20429;-55
2022/12/12 06:40:59;;;;;;;19.43;10.40;;;;;;;;;;5053444;28;20969;-54
2022/12/12 06:43:25;;;;;;;20.33;12.77;;;;;;;;;;5053817;28;20464;-53
2022/12/12 06:45:51;;;;;;;20.10;12.63;;;;;;;;;;5009360;28;20441;-54
2022/12/12 06:48:17;;;;;;;21.60;9.67;;;;;;;;;;5055308;28;22299;-54
2022/12/12 06:50:43;;;;;;;14.93;11.07;;;;;;;;;;5049449;28;20540;-55
2022/12/12 06:53:09;;;;;;;19.20;12.07;;;;;;;;;;5025280;28;20532;-55
2022/12/12 06:55:40;;;;;;;19.93;10.90;;;;;;;;;;5057911;28;20482;-56
2022/12/12 06:58:06;;;;;;;24.03;13.00;;;;;;;;;;5060654;28;20474;-56
2022/12/12 07:00:32;;;;;;;18.90;12.13;;;;;;;;;;5029912;28;20441;-55
2022/12/12 07:02:57;;;;;;;19.87;10.47;;;;;;;;;;5056711;28;20547;-57
2022/12/12 07:05:23;;;;;;;22.67;12.00;;;;;;;;;;5040713;28;20442;-55
2022/12/12 07:07:49;;;;;;;19.90;11.73;;;;;;;;;;5057536;28;20441;-55
2022/12/12 07:10:15;;;;;;;18.87;10.80;;;;;;;;;;5052581;28;20406;-54
2022/12/12 07:12:41;;;;;;;21.00;13.47;;;;;;;;;;5060448;28;20471;-55
2022/12/12 07:15:15;;;;;;;15.33;10.20;;;;;;;;;;5030666;28;21746;-56
2022/12/12 07:17:41;;;;;;;24.80;14.07;;;;;;;;;;5042862;28;20518;-55
2022/12/12 07:20:08;;;;;;;20.30;13.20;;;;;;;;;;5033729;28;21165;-55
2022/12/12 07:22:35;;;;;;;24.03;12.10;;;;;;;;;;5016640;28;21306;-55
2022/12/12 07:25:01;;;;;;;24.70;12.53;;;;;;;;;;5053100;28;20421;-56
2022/12/12 07:27:27;;;;;;;21.43;12.37;;;;;;;;;;5046951;28;20441;-60
2022/12/12 07:29:53;;;;;;;19.30;11.30;;;;;;;;;;5046594;28;20445;-54
2022/12/12 07:32:19;;;;;;;17.30;10.50;;;;;;;;;;5034883;28;20453;-56
2022/12/12 07:34:44;;;;;;;24.70;10.47;;;;;;;;;;4982121;28;24281;-56
2022/12/12 07:37:11;;;;;;;24.80;14.10;;;;;;;;;;5050034;28;20437;-55
2022/12/12 07:39:37;;;;;;;17.50;12.70;;;;;;;;;;5032244;28;20472;-56
2022/12/12 07:42:03;;;;;;;27.57;14.80;;;;;;;;;;5056733;28;20468;-56
2022/12/12 07:44:29;;;;;;;26.70;12.70;;;;;;;;;;5051153;28;20686;-54
2022/12/12 07:46:57;;;;;;;30.93;13.20;;;;;;;;;;5052088;28;20448;-55
2022/12/12 07:49:23;;;;;;;20.53;13.20;;;;;;;;;;5007908;28;20449;-53
2022/12/12 07:51:49;;;;;;;30.83;14.67;;;;;;;;;;5039516;28;20453;-55
2022/12/12 07:54:15;;;;;;;18.10;10.43;;;;;;;;;;5048278;28;20442;-55
2022/12/12 07:56:41;;;;;;;16.27;11.57;;;;;;;;;;5049954;28;20528;-55
2022/12/12 07:59:07;;;;;;;19.17;10.80;;;;;;;;;;5041953;28;20947;-55
2022/12/12 08:01:33;;;;;;;20.93;11.93;;;;;;;;;;5036657;28;21014;-56
2022/12/12 08:03:59;;;;;;;18.27;12.10;;;;;;;;;;5045395;28;20471;-56
2022/12/12 08:06:26;;;;;;;17.63;10.83;;;;;;;;;;5020269;28;20480;-55
2022/12/12 08:08:52;;;;;;;17.60;11.43;;;;;;;;;;5048148;28;20437;-56
2022/12/12 08:11:19;;;;;;;15.87;11.27;;;;;;;;;;5029892;28;20442;-56
2022/12/12 08:13:45;;;;;;;22.30;12.77;;;;;;;;;;5053763;28;20461;-54
2022/12/12 08:16:18;;;;;;;22.63;12.33;;;;;;;;;;5043680;28;20466;-56
2022/12/12 08:18:44;;;;;;;17.70;10.67;;;;;;;;;;5054156;28;20439;-55
2022/12/12 08:21:10;;;;;;;19.50;12.37;;;;;;;;;;5007852;28;20485;-55
2022/12/12 08:23:37;;;;;;;23.80;11.57;;;;;;;;;;5048723;28;20545;-55
2022/12/12 08:26:07;;;;;;;20.67;12.37;;;;;;;;;;5039872;28;20458;-55
2022/12/12 08:28:33;;;;;;;24.80;11.60;;;;;;;;;;5058070;28;21185;-55
2022/12/12 08:30:59;;;;;;;16.27;10.80;;;;;;;;;;5046558;28;20429;-54
2022/12/12 08:33:25;;;;;;;14.90;10.10;;;;;;;;;;5054440;28;20441;-54
2022/12/12 08:35:51;;;;;;;16.90;9.93;;;;;;;;;;5022069;28;20434;-55
2022/12/12 08:38:17;;;;;;;14.53;9.80;;;;;;;;;;5053395;28;20560;-56
2022/12/12 08:40:43;;;;;;;27.87;11.50;;;;;;;;;;5013460;28;20449;-55
2022/12/12 08:43:09;;;;;;;22.43;12.73;;;;;;;;;;5057910;28;20938;-55
2022/12/12 08:45:36;;;;;;;19.23;11.73;;;;;;;;;;5034668;28;20432;-54
2022/12/12 08:48:02;;;;;;;21.43;12.57;;;;;;;;;;5061503;28;20451;-54
2022/12/12 08:50:28;;;;;;;26.83;11.40;;;;;;;;;;4999462;28;20438;-56
2022/12/12 08:52:54;;;;;;;19.23;11.53;;;;;;;;;;5062730;28;20516;-55
2022/12/12 08:55:20;;;;;;;16.33;10.47;;;;;;;;;;5041301;28;20536;-54
2022/12/12 08:57:46;;;;;;;23.17;12.03;;;;;;;;;;5033311;28;20835;-54
2022/12/12 09:00:12;;;;;;;17.43;11.50;;;;;;;;;;5050543;28;20433;-54
2022/12/12 09:02:38;;;;;;;19.43;12.67;;;;;;;;;;5054893;28;20599;-55
2022/12/12 09:05:04;;;;;;;16.43;10.60;;;;;;;;;;5033333;28;20803;-57
2022/12/12 09:07:30;;;;;;;19.20;11.27;;;;;;;;;;5050627;28;20444;-54
2022/12/12 09:09:56;;;;;;;17.20;9.63;;;;;;;;;;5035122;28;20441;-54
2022/12/12 09:12:22;;;;;;;20.60;12.27;;;;;;;;;;5042975;28;20529;-56
2022/12/12 09:14:48;;;;;;;16.57;11.67;;;;;;;;;;5028823;28;20840;-56
2022/12/12 09:17:14;;;;;;;17.40;11.57;;;;;;;;;;5052548;28;20454;-54
2022/12/12 09:19:40;;;;;;;17.77;11.77;;;;;;;;;;5056384;28;20441;-56
2022/12/12 09:22:06;;;;;;;15.37;10.40;;;;;;;;;;5053430;28;20480;-55
2022/12/12 09:24:44;;;;;;;18.17;10.43;;;;;;;;;;5021401;28;21103;-53
2022/12/12 09:27:10;;;;;;;22.40;12.50;;;;;;;;;;5060626;28;20428;-55
2022/12/12 09:29:37;;;;;;;15.63;11.10;;;;;;;;;;5030188;28;20431;-55
2022/12/12 09:32:05;;;;;;;19.03;13.30;;;;;;;;;;5038318;28;20690;-53
2022/12/12 09:34:31;;;;;;;17.80;10.30;;;;;;;;;;5052989;28;20434;-55
2022/12/12 09:36:57;;;;;;;14.97;11.70;;;;;;;;;;5053960;28;20433;-55
2022/12/12 09:39:23;;;;;;;19.73;11.63;;;;;;;;;;5045185;28;20449;-60
2022/12/12 09:41:49;;;;;;;17.07;11.57;;;;;;;;;;5052924;28;20507;-54
2022/12/12 09:44:17;;;;;;;20.03;12.87;;;;;;;;;;5062490;28;20444;-54
2022/12/12 09:46:54;;;;;;;15.70;10.20;;;;;;;;;;5051523;28;20519;-56
2022/12/12 09:49:29;;;;;;;17.70;10.77;;;;;;;;;;5050212;28;21321;-55
2022/12/12 09:51:55;;;;;;;24.27;10.67;;;;;;;;;;5064156;28;20444;-55
2022/12/12 09:54:22;;;;;;;16.33;11.27;;;;;;;;;;5052991;28;20444;-54
2022/12/12 09:57:06;;;;;;;19.03;11.33;;;;;;;;;;5056727;28;20469;-54
2022/12/12 09:59:40;;;;;;;20.87;12.93;;;;;;;;;;5021476;28;21070;-55
2022/12/12 10:02:09;;;;;;;19.00;10.63;;;;;;;;;;5042579;28;21125;-55
2022/12/12 10:04:50;;;;;;;14.17;10.60;;;;;;;;;;5029292;28;21513;-56
2022/12/12 10:07:19;;;;;;;19.50;12.10;;;;;;;;;;5052726;28;20437;-58
2022/12/12 10:10:00;;;;;;;17.20;11.10;;;;;;;;;;5053455;28;20445;-56
2022/12/12 10:12:26;;;;;;;16.60;10.90;;;;;;;;;;5056206;28;20528;-55
2022/12/12 10:14:54;;;;;;;16.43;10.60;;;;;;;;;;5030487;28;21148;-56
2022/12/12 10:17:21;;;;;;;19.10;11.53;;;;;;;;;;5047127;28;20830;-56
2022/12/12 10:19:49;;;;;;;18.80;9.70;;;;;;;;;;5034456;28;20453;-57
2022/12/12 10:25:24;;;;;;;17.60;10.10;;;;;;;;;;5046097;28;21242;-55
2022/12/12 10:27:51;;;;;;;16.13;9.90;;;;;;;;;;5049143;28;20421;-55
2022/12/12 10:30:18;;;;;;;18.17;10.70;;;;;;;;;;5055457;28;20430;-58
2022/12/12 10:35:56;;;;;;;17.47;10.30;;;;;;;;;;5002669;28;20510;-55
2022/12/12 10:38:22;;;;;;;13.73;9.90;;;;;;;;;;5040108;28;20435;-55
2022/12/12 10:40:57;;;;;;;16.03;10.43;;;;;;;;;;5044589;28;20429;-54
2022/12/12 10:43:23;;;;;;;15.20;10.53;;;;;;;;;;5048936;28;20444;-58
2022/12/12 10:46:10;;;;;;;16.53;10.53;;;;;;;;;;5031329;28;20522;-56
2022/12/12 10:48:36;;;;;;;15.30;9.93;;;;;;;;;;5052077;28;20485;-54
2022/12/12 10:51:03;;;;;;;18.53;10.80;;;;;;;;;;5023467;28;20450;-55
2022/12/12 10:53:29;;;;;;;13.33;9.07;;;;;;;;;;5053729;28;20467;-57
2022/12/12 10:56:08;;;;;;;13.97;7.97;;;;;;;;;;5050716;28;20438;-55
2022/12/12 10:58:51;;;;;;;16.50;9.20;;;;;;;;;;5053529;28;20876;-55
2022/12/12 11:01:20;;;;;;;18.00;10.33;;;;;;;;;;5026640;28;20470;-56
2022/12/12 11:03:46;;;;;;;14.17;9.70;;;;;;;;;;5059112;28;20453;-54
2022/12/12 11:06:14;;;;;;;13.80;9.17;;;;;;;;;;5003997;28;20461;-55
2022/12/12 11:08:40;;;;;;;9.70;7.10;;;;;;;;;;5051165;28;20486;-54
2022/12/12 11:11:06;;;;;;;10.93;7.50;;;;;;;;;;5066185;28;20433;-57
2022/12/12 11:13:44;;;;;;;16.43;8.13;;;;;;;;;;5056318;28;20548;-56
2022/12/12 11:16:17;;;;;;;8.87;7.03;;;;;;;;;;5054713;28;20471;-54
2022/12/12 11:18:49;;;;;;;13.57;7.37;;;;;;;;;;5052512;28;20460;-57
2022/12/12 11:21:15;;;;;;;9.37;6.40;;;;;;;;;;5034150;28;21247;-56
2022/12/12 11:23:43;;;;;;;10.23;7.80;;;;;;;;;;5053898;28;20510;-58
2022/12/12 11:26:13;;;;;;;12.00;7.73;;;;;;;;;;5046041;28;20449;-56
2022/12/12 11:28:39;;;;;;;11.70;7.53;;;;;;;;;;5050271;28;20434;-55
2022/12/12 11:31:06;;;;;;;11.83;6.77;;;;;;;;;;5046994;28;21004;-55
2022/12/12 11:33:33;;;;;;;18.60;9.97;;;;;;;;;;5050200;28;20679;-58
2022/12/12 11:36:00;;;;;;;8.37;6.77;;;;;;;;;;4991114;28;23391;-55
2022/12/12 11:38:28;;;;;;;10.63;7.60;;;;;;;;;;5029009;28;20433;-55
2022/12/12 11:41:04;;;;;;;9.73;8.70;;;;;;;;;;5056910;28;20494;-57
2022/12/12 11:43:31;;;;;;;12.00;8.13;;;;;;;;;;5049934;28;20519;-56
2022/12/12 11:46:07;;;;;;;11.80;8.00;;;;;;;;;;5054545;28;20437;-56
2022/12/12 11:48:39;;;;;;;34.57;18.63;;;;;;;;;;5053919;28;20805;-55
2022/12/12 11:51:05;;;;;;;10.20;7.70;;;;;;;;;;5036786;28;20436;-56
2022/12/12 11:53:32;;;;;;;8.13;6.10;;;;;;;;;;5027232;28;21283;-57
2022/12/12 11:56:01;;;;;;;9.30;5.43;;;;;;;;;;5052712;28;21302;-56
2022/12/12 11:58:27;;;;;;;9.90;5.50;;;;;;;;;;5043916;28;20452;-56
2022/12/12 12:00:56;;;;;;;7.13;5.50;;;;;;;;;;5050746;28;20417;-55
2022/12/12 12:03:23;;;;;;;6.23;4.33;;;;;;;;;;5048677;28;20430;-57
2022/12/12 12:06:08;;;;;;;9.00;5.13;;;;;;;;;;5040154;28;20444;-55
2022/12/12 12:08:47;;;;;;;7.83;4.60;;;;;;;;;;5037688;28;20798;-56
2022/12/12 12:11:16;;;;;;;8.10;4.50;;;;;;;;;;5037509;28;21590;-54
2022/12/12 12:13:42;;;;;;;6.63;4.30;;;;;;;;;;5047201;28;20472;-56
2022/12/12 12:16:27;;;;;;;5.20;3.83;;;;;;;;;;5041757;28;20437;-56
2022/12/12 12:19:13;;;;;;;7.47;5.20;;;;;;;;;;5051201;28;20440;-54
2022/12/12 12:21:40;;;;;;;8.60;4.30;;;;;;;;;;5014343;28;20478;-54
2022/12/12 12:24:18;;;;;;;4.73;3.33;;;;;;;;;;5042716;28;21289;-57
2022/12/12 12:26:51;;;;;;;5.47;4.67;;;;;;;;;;5036077;28;21192;-56
2022/12/12 12:29:32;;;;;;;7.00;4.20;;;;;;;;;;5027556;28;20519;-54
2022/12/12 12:32:13;;;;;;;3.87;3.00;;;;;;;;;;5054508;28;20445;-55
2022/12/12 12:34:43;;;;;;;6.07;3.60;;;;;;;;;;5047905;28;21377;-56
2022/12/12 12:37:16;;;;;;;5.93;3.83;;;;;;;;;;5010610;28;21181;-56
2022/12/12 12:39:53;;;;;;;4.30;3.17;;;;;;;;;;5039693;28;20809;-55
2022/12/12 12:42:22;;;;;;;8.50;4.27;;;;;;;;;;5068217;28;20560;-56
2022/12/12 12:45:07;;;;;;;4.33;3.50;;;;;;;;;;5057303;28;20426;-56
2022/12/12 12:47:46;;;;;;;5.97;3.60;;;;;;;;;;5031675;28;20472;-56
2022/12/12 12:50:32;;;;;;;3.00;2.43;;;;;;;;;;5065195;28;20945;-56
2022/12/12 12:53:06;;;;;;;4.63;3.70;;;;;;;;;;5006673;28;20801;-55
2022/12/12 12:55:40;;;;;;;4.70;3.40;;;;;;;;;;5049543;28;20440;-55
2022/12/12 12:58:06;;;;;;;9.40;5.70;;;;;;;;;;5054156;28;20436;-55
2022/12/12 13:00:32;;;;;;;15.30;10.37;;;;;;;;;;5052881;28;20541;-55
2022/12/12 13:03:01;;;;;;;18.50;10.97;;;;;;;;;;5029239;28;20479;-55
2022/12/12 13:05:33;;;;;;;24.80;12.07;;;;;;;;;;5046544;28;20541;-53
2022/12/12 13:08:20;;;;;;;17.37;9.50;;;;;;;;;;5022419;28;20437;-54
2022/12/12 13:10:47;;;;;;;16.50;10.23;;;;;;;;;;5048749;28;21173;-56
2022/12/12 13:13:30;;;;;;;15.43;9.30;;;;;;;;;;5010595;28;20506;-55
2022/12/12 13:15:56;;;;;;;17.23;10.33;;;;;;;;;;5023964;28;22199;-55
2022/12/12 13:18:24;;;;;;;16.80;9.70;;;;;;;;;;5000749;28;20809;-56
2022/12/12 13:20:52;;;;;;;16.63;9.93;;;;;;;;;;5009866;28;20445;-56
2022/12/12 13:23:31;;;;;;;19.27;10.80;;;;;;;;;;5013390;28;20544;-54
2022/12/12 13:26:06;;;;;;;15.90;9.03;;;;;;;;;;5013715;28;20500;-53
2022/12/12 13:28:34;;;;;;;18.60;10.70;;;;;;;;;;5005286;28;20506;-56
2022/12/12 13:31:07;;;;;;;17.70;9.73;;;;;;;;;;5049254;28;20540;-54
2022/12/12 13:33:36;;;;;;;20.73;13.30;;;;;;;;;;5053515;28;20433;-53
2022/12/12 13:36:10;;;;;;;19.63;12.40;;;;;;;;;;5053658;28;20434;-55
2022/12/12 13:38:36;;;;;;;20.70;11.30;;;;;;;;;;5011524;28;20442;-55
2022/12/12 13:41:05;;;;;;;16.67;11.60;;;;;;;;;;5056261;28;20441;-55
2022/12/12 13:43:33;;;;;;;18.53;13.00;;;;;;;;;;5056888;28;20528;-56
2022/12/12 13:46:19;;;;;;;20.77;10.13;;;;;;;;;;5057213;28;20550;-54
2022/12/12 13:49:17;;;;;;;17.97;10.13;;;;;;;;;;5001565;28;20472;-55
2022/12/12 13:51:43;;;;;;;18.70;9.60;;;;;;;;;;5056092;28;21143;-55
2022/12/12 13:54:10;;;;;;;14.27;10.70;;;;;;;;;;5052542;28;20521;-56
2022/12/12 13:56:39;;;;;;;18.87;13.30;;;;;;;;;;5052330;28;20441;-55
2022/12/12 13:59:21;;;;;;;13.83;8.87;;;;;;;;;;5040105;28;20422;-55
2022/12/12 14:01:47;;;;;;;26.17;11.33;;;;;;;;;;5052204;28;20613;-54
2022/12/12 14:04:23;;;;;;;21.87;12.20;;;;;;;;;;5031879;28;21167;-55
2022/12/12 14:07:08;;;;;;;22.10;12.90;;;;;;;;;;5044911;28;20936;-56
2022/12/12 14:09:35;;;;;;;23.37;12.27;;;;;;;;;;5036080;28;20473;-54
2022/12/12 14:12:10;;;;;;;19.17;12.00;;;;;;;;;;5052363;28;20422;-54
2022/12/12 14:14:35;;;;;;;20.00;10.80;;;;;;;;;;5047383;28;20487;-55
2022/12/12 14:17:01;;;;;;;22.63;13.23;;;;;;;;;;5053282;28;20440;-55
2022/12/12 14:19:37;;;;;;;20.97;13.30;;;;;;;;;;5052781;28;20433;-55
2022/12/12 14:24:58;;;;;;;25.43;12.90;;;;;;;;;;5043118;28;20481;-54
2022/12/12 14:27:56;;;;;;;17.27;11.20;;;;;;;;;;5062674;28;20453;-60
2022/12/12 14:30:34;;;;;;;13.80;10.57;;;;;;;;;;5053148;28;20479;-60
2022/12/12 14:33:15;;;;;;;24.87;12.57;;;;;;;;;;5023027;28;20512;-54
2022/12/12 14:36:01;;;;;;;28.10;13.00;;;;;;;;;;5056826;28;20441;-54
2022/12/12 14:38:46;;;;;;;19.97;12.63;;;;;;;;;;4989555;28;20499;-55
2022/12/12 14:41:15;;;;;;;21.40;11.97;;;;;;;;;;5056357;28;20467;-54
2022/12/12 14:43:42;;;;;;;20.73;12.57;;;;;;;;;;5024143;28;21295;-53
2022/12/12 14:46:14;;;;;;;19.90;12.50;;;;;;;;;;5045317;28;20587;-55
2022/12/12 14:48:40;;;;;;;25.97;14.20;;;;;;;;;;5016877;28;20439;-55
2022/12/12 14:51:09;;;;;;;21.97;11.53;;;;;;;;;;5048153;28;20429;-54
2022/12/12 14:53:38;;;;;;;20.13;12.00;;;;;;;;;;4992657;28;21879;-54
2022/12/12 14:56:14;;;;;;;27.47;11.67;;;;;;;;;;5041830;28;20449;-54
2022/12/12 14:59:01;;;;;;;24.17;12.27;;;;;;;;;;5051268;28;20436;-54